createdAt,value
2022-10-20T00:04:12.833Z,3.64
2022-10-20T00:09:14.544Z,3.51
2022-10-20T00:14:16.208Z,3.43
2022-10-20T00:19:17.868Z,3.51
2022-10-20T00:24:21.616Z,3.28
2022-10-20T00:29:23.306Z,3.34
2022-10-20T00:34:25.015Z,3.38
2022-10-20T00:39:26.671Z,3.33
2022-10-20T00:44:54.383Z,3.42
2022-10-20T00:50:01.252Z,3.33
2022-10-20T00:55:03.008Z,3.32
2022-10-20T01:00:06.749Z,3.40
2022-10-20T01:05:08.904Z,3.21
2022-10-20T01:10:11.581Z,3.12
2022-10-20T01:15:25.789Z,3.02
2022-10-20T01:20:39.293Z,2.90
2022-10-20T01:25:54.949Z,3.05
2022-10-20T01:31:03.642Z,3.02
2022-10-20T01:36:27.469Z,3.00
2022-10-20T01:42:11.389Z,2.93
2022-10-20T01:47:14.367Z,2.89
2022-10-20T01:52:17.172Z,3.00
2022-10-20T01:57:33.680Z,2.73
2022-10-20T02:02:53.221Z,2.62
2022-10-20T02:08:12.559Z,2.73
2022-10-20T02:13:16.150Z,2.66
2022-10-20T02:18:27.901Z,2.59
2022-10-20T02:23:35.058Z,2.41
2022-10-20T02:28:43.024Z,2.53
2022-10-20T02:33:46.331Z,2.58
2022-10-20T02:38:48.102Z,2.58
2022-10-20T02:43:49.771Z,2.51
2022-10-20T02:48:51.469Z,2.54
2022-10-20T02:53:54.860Z,2.42
2022-10-20T02:58:57.521Z,2.45
2022-10-20T03:03:59.995Z,2.42
2022-10-20T03:09:01.764Z,2.56
2022-10-20T03:14:03.781Z,2.63
2022-10-20T03:19:07.269Z,2.46
2022-10-20T03:24:10.895Z,2.41
2022-10-20T03:29:12.601Z,2.49
2022-10-20T03:34:14.446Z,2.31
2022-10-20T03:39:16.161Z,2.26
2022-10-20T03:44:17.835Z,2.13
2022-10-20T03:49:19.562Z,2.17
2022-10-20T03:54:21.224Z,2.07
2022-10-20T03:59:24.499Z,2.10
2022-10-20T04:04:28.442Z,2.08
2022-10-20T04:09:30.114Z,2.05
2022-10-20T04:14:31.772Z,1.91
2022-10-20T04:19:33.458Z,2.27
2022-10-20T04:24:35.351Z,2.11
2022-10-20T04:29:37.168Z,1.95
2022-10-20T04:34:39.054Z,1.91
2022-10-20T04:39:40.939Z,1.79
2022-10-20T04:44:42.685Z,1.61
2022-10-20T04:49:44.451Z,1.87
2022-10-20T04:54:46.131Z,1.81
2022-10-20T04:59:47.888Z,1.93
2022-10-20T05:04:49.554Z,2.03
2022-10-20T05:09:51.216Z,1.80
2022-10-20T05:14:52.880Z,1.80
2022-10-20T05:19:54.533Z,1.78
2022-10-20T05:24:58.406Z,1.85
2022-10-20T05:30:06.406Z,1.89
2022-10-20T05:35:08.496Z,1.90
2022-10-20T05:40:10.612Z,1.83
2022-10-20T05:45:12.484Z,1.78
2022-10-20T05:50:14.177Z,2.07
2022-10-20T05:55:15.996Z,2.09
2022-10-20T06:00:23.781Z,2.20
2022-10-20T06:05:25.451Z,2.51
2022-10-20T06:10:27.147Z,2.93
2022-10-20T06:15:28.842Z,3.02
2022-10-20T06:20:30.526Z,2.96
2022-10-20T06:25:32.213Z,3.28
2022-10-20T06:30:33.901Z,3.10
2022-10-20T06:35:35.563Z,2.69
2022-10-20T06:40:37.409Z,2.73
2022-10-20T06:45:39.067Z,3.16
2022-10-20T06:50:40.746Z,2.93
2022-10-20T06:55:42.423Z,3.33
2022-10-20T07:00:44.092Z,3.90
2022-10-20T07:05:48.444Z,4.21
2022-10-20T07:11:11.748Z,5.73
2022-10-20T07:16:17.252Z,6.00
2022-10-20T07:21:30.771Z,5.63
2022-10-20T07:26:39.259Z,5.03
2022-10-20T07:31:44.618Z,5.09
2022-10-20T07:36:46.291Z,5.02
2022-10-20T07:41:48.402Z,5.08
2022-10-20T07:46:50.369Z,5.30
2022-10-20T07:51:52.078Z,4.90
2022-10-20T07:56:53.752Z,4.77
2022-10-20T08:01:57.518Z,5.20
2022-10-20T08:07:01.265Z,5.98
2022-10-20T08:12:04.296Z,8.72
2022-10-20T08:17:06.046Z,13.05
2022-10-20T08:22:07.736Z,13.71
2022-10-20T08:27:09.427Z,14.38
2022-10-20T08:32:13.157Z,11.86
2022-10-20T08:37:14.884Z,13.54
2022-10-20T08:42:17.805Z,13.26
2022-10-20T08:47:32.517Z,13.57
2022-10-20T08:52:35.971Z,16.57
2022-10-20T08:57:38.071Z,15.37
2022-10-20T09:02:40.397Z,18.11
2022-10-20T09:07:42.070Z,20.28
2022-10-20T09:12:46.828Z,18.14
2022-10-20T09:17:55.524Z,17.80
2022-10-20T09:22:57.411Z,15.81
2022-10-20T09:27:59.116Z,13.90
2022-10-20T09:33:01.350Z,13.92
2022-10-20T09:38:22.521Z,13.78
2022-10-20T09:43:26.723Z,15.89
2022-10-20T09:48:32.785Z,15.22
2022-10-20T09:53:41.112Z,15.99
2022-10-20T09:58:47.614Z,15.76
2022-10-20T10:03:56.464Z,17.52
2022-10-20T10:09:00.797Z,22.26
2022-10-20T10:14:03.675Z,24.80
2022-10-20T10:19:06.036Z,25.09
2022-10-20T10:24:30.047Z,23.25
2022-10-20T10:29:36.387Z,24.78
2022-10-20T10:34:45.068Z,25.04
2022-10-20T10:39:46.963Z,22.47
2022-10-20T10:45:02.990Z,21.14
2022-10-20T10:50:23.203Z,23.34
2022-10-20T10:55:59.921Z,21.53
2022-10-20T11:01:37.275Z,23.23
2022-10-20T11:06:42.614Z,21.62
2022-10-20T11:12:12.085Z,22.63
2022-10-20T11:17:56.807Z,22.03
2022-10-20T11:23:23.104Z,22.42
2022-10-20T11:28:44.312Z,20.93
2022-10-20T11:33:51.463Z,23.36
2022-10-20T11:38:56.256Z,21.71
2022-10-20T11:44:14.571Z,23.02
2022-10-20T11:49:16.413Z,23.83
2022-10-20T11:54:54.978Z,23.45
2022-10-20T12:00:27.413Z,21.23
2022-10-20T12:05:39.408Z,20.03
2022-10-20T12:10:58.654Z,21.89
2022-10-20T12:16:00.410Z,22.95
2022-10-20T12:21:03.407Z,21.63
2022-10-20T12:26:32.953Z,20.25
2022-10-20T12:32:11.916Z,21.15
2022-10-20T12:37:26.165Z,20.01
2022-10-20T12:42:33.588Z,22.20
2022-10-20T12:47:37.787Z,20.04
2022-10-20T12:52:40.716Z,20.28
2022-10-20T12:57:43.014Z,19.77
2022-10-20T13:02:47.234Z,19.96
2022-10-20T13:07:48.929Z,19.34
2022-10-20T13:12:50.693Z,18.58
2022-10-20T13:18:02.453Z,17.68
2022-10-20T13:23:04.818Z,16.47
2022-10-20T13:28:23.446Z,16.61
2022-10-20T13:33:58.763Z,16.44
2022-10-20T13:39:28.069Z,15.79
2022-10-20T13:44:44.832Z,15.45
2022-10-20T13:50:06.138Z,15.90
2022-10-20T13:55:16.150Z,16.20
2022-10-20T14:00:22.439Z,16.04
2022-10-20T14:05:25.777Z,15.88
2022-10-20T14:10:53.588Z,15.53
2022-10-20T14:15:58.153Z,14.88
2022-10-20T14:21:05.625Z,14.53
2022-10-20T14:26:15.722Z,14.69
2022-10-20T14:31:22.024Z,14.37
2022-10-20T14:41:35.783Z,13.86
2022-10-20T14:46:45.033Z,13.50
2022-10-20T14:51:59.225Z,13.13
2022-10-20T14:57:22.336Z,13.26
2022-10-20T15:02:27.353Z,12.98
2022-10-20T15:07:34.040Z,13.08
2022-10-20T15:12:36.114Z,12.83
2022-10-20T15:17:47.564Z,12.61
2022-10-20T15:22:52.239Z,12.36
2022-10-20T15:27:57.428Z,12.20
2022-10-20T15:32:59.393Z,11.99
2022-10-20T15:38:01.058Z,11.76
2022-10-20T15:43:03.173Z,11.65
2022-10-20T15:48:05.088Z,11.40
2022-10-20T15:53:06.840Z,11.21
2022-10-20T15:58:08.788Z,11.03
2022-10-20T16:03:17.199Z,11.02
2022-10-20T16:08:18.870Z,11.04
2022-10-20T16:13:21.208Z,10.76
2022-10-20T16:18:22.878Z,10.55
2022-10-20T16:23:24.778Z,10.58
2022-10-20T16:28:26.447Z,10.63
2022-10-20T16:33:28.545Z,10.59
2022-10-20T16:38:30.644Z,10.54
2022-10-20T16:43:36.418Z,10.61
2022-10-20T16:48:41.365Z,10.51
2022-10-20T16:53:44.525Z,10.33
2022-10-20T16:58:46.185Z,10.10
2022-10-20T17:03:52.967Z,9.81
2022-10-20T17:08:55.329Z,9.54
2022-10-20T17:13:57.638Z,9.39
2022-10-20T17:19:01.369Z,9.26
2022-10-20T17:24:03.129Z,9.07
2022-10-20T17:29:05.056Z,8.93
2022-10-20T17:34:06.776Z,8.89
2022-10-20T17:39:08.837Z,8.78
2022-10-20T17:44:10.512Z,8.71
2022-10-20T17:49:12.201Z,8.43
2022-10-20T17:54:14.024Z,8.40
2022-10-20T17:59:15.696Z,8.06
2022-10-20T18:04:18.685Z,8.00
2022-10-20T18:09:20.450Z,8.00
2022-10-20T18:14:22.135Z,7.79
2022-10-20T18:19:23.807Z,7.65
2022-10-20T18:24:25.508Z,7.28
2022-10-20T18:29:27.245Z,7.58
2022-10-20T18:34:28.908Z,7.58
2022-10-20T18:39:34.146Z,7.44
2022-10-20T18:44:35.870Z,7.31
2022-10-20T18:49:37.555Z,7.17
2022-10-20T18:54:39.620Z,7.22
2022-10-20T18:59:41.291Z,7.25
2022-10-20T19:04:42.979Z,7.27
2022-10-20T19:09:44.650Z,7.11
2022-10-20T19:14:46.369Z,6.94
2022-10-20T19:19:48.038Z,6.83
2022-10-20T19:24:49.713Z,6.87
2022-10-20T19:29:51.422Z,6.54
2022-10-20T19:34:53.113Z,6.66
2022-10-20T19:39:54.827Z,6.63
2022-10-20T19:44:56.501Z,6.65
2022-10-20T19:49:58.188Z,6.52
2022-10-20T19:55:01.279Z,6.62
2022-10-20T20:00:03.770Z,6.51
2022-10-20T20:05:06.527Z,6.55
2022-10-20T20:10:10.176Z,6.32
2022-10-20T20:15:11.879Z,6.37
2022-10-20T20:20:13.589Z,6.39
2022-10-20T20:25:15.624Z,6.60
2022-10-20T20:30:17.290Z,6.80
2022-10-20T20:35:18.972Z,6.69
2022-10-20T20:40:21.508Z,6.81
2022-10-20T20:45:23.176Z,7.00
2022-10-20T20:50:24.854Z,6.92
2022-10-20T20:55:26.525Z,7.10
2022-10-20T21:00:28.232Z,7.04
2022-10-20T21:05:29.924Z,7.03
2022-10-20T21:10:31.675Z,7.05
2022-10-20T21:15:33.326Z,7.02
2022-10-20T21:20:34.990Z,7.02
2022-10-20T21:25:36.670Z,7.13
2022-10-20T21:30:40.186Z,7.36
2022-10-20T21:35:41.901Z,7.55
2022-10-20T21:40:43.553Z,7.63
2022-10-20T21:45:45.208Z,7.39
2022-10-20T21:50:46.864Z,7.63
2022-10-20T21:55:48.518Z,7.92
2022-10-20T22:00:53.688Z,8.04
2022-10-20T22:05:55.360Z,8.10
2022-10-20T22:10:57.044Z,8.03
2022-10-20T22:15:59.213Z,8.27
2022-10-20T22:21:13.783Z,8.03
2022-10-20T22:26:15.620Z,8.03
2022-10-20T22:31:18.254Z,8.16
2022-10-20T22:36:20.510Z,8.15
2022-10-20T22:41:22.677Z,8.27
2022-10-20T22:46:25.005Z,8.23
2022-10-20T22:51:26.688Z,8.09
2022-10-20T22:56:28.458Z,8.09
2022-10-20T23:01:30.198Z,8.04
2022-10-20T23:06:31.929Z,8.46
2022-10-20T23:11:34.317Z,8.37
2022-10-20T23:16:35.984Z,8.59
2022-10-20T23:21:37.644Z,8.44
2022-10-20T23:26:39.382Z,8.64
2022-10-20T23:31:41.111Z,8.70
2022-10-20T23:36:42.790Z,8.94
2022-10-20T23:41:44.639Z,8.86
2022-10-20T23:46:46.334Z,8.77
2022-10-20T23:51:48.075Z,8.85
2022-10-20T23:56:49.739Z,8.76
